sensor_id;sensor_type;location;lat;lon;timestamp;P1;durP1;ratioP1;P2;durP2;ratioP2
12760;SDS011;6444;49.742;6.114;2023-12-28T00:00:44;2.92;;;2.50;;
12760;SDS011;6444;49.742;6.114;2023-12-28T00:03:11;4.22;;;2.42;;
12760;SDS011;6444;49.742;6.114;2023-12-28T00:05:38;5.33;;;2.13;;
12760;SDS011;6444;49.742;6.114;2023-12-28T00:08:05;3.03;;;2.30;;
12760;SDS011;6444;49.742;6.114;2023-12-28T00:10:31;4.20;;;2.40;;
12760;SDS011;6444;49.742;6.114;2023-12-28T00:12:58;2.40;;;2.10;;
12760;SDS011;6444;49.742;6.114;2023-12-28T00:15:24;3.90;;;1.98;;
12760;SDS011;6444;49.742;6.114;2023-12-28T00:17:51;4.05;;;2.37;;
12760;SDS011;6444;49.742;6.114;2023-12-28T00:20:18;3.78;;;2.85;;
12760;SDS011;6444;49.742;6.114;2023-12-28T00:22:44;9.40;;;2.70;;
12760;SDS011;6444;49.742;6.114;2023-12-28T00:25:11;4.25;;;2.58;;
12760;SDS011;6444;49.742;6.114;2023-12-28T00:27:38;3.87;;;2.10;;
12760;SDS011;6444;49.742;6.114;2023-12-28T00:30:05;5.65;;;2.50;;
12760;SDS011;6444;49.742;6.114;2023-12-28T00:32:31;2.40;;;2.10;;
12760;SDS011;6444;49.742;6.114;2023-12-28T00:34:58;4.93;;;2.80;;
12760;SDS011;6444;49.742;6.114;2023-12-28T00:37:24;3.53;;;2.47;;
12760;SDS011;6444;49.742;6.114;2023-12-28T00:39:51;5.00;;;2.73;;
12760;SDS011;6444;49.742;6.114;2023-12-28T00:42:18;5.47;;;2.20;;
12760;SDS011;6444;49.742;6.114;2023-12-28T00:44:45;2.90;;;2.37;;
12760;SDS011;6444;49.742;6.114;2023-12-28T00:47:11;4.28;;;3.25;;
12760;SDS011;6444;49.742;6.114;2023-12-28T00:49:38;4.07;;;2.83;;
12760;SDS011;6444;49.742;6.114;2023-12-28T00:52:05;3.75;;;2.67;;
12760;SDS011;6444;49.742;6.114;2023-12-28T00:54:31;4.03;;;2.80;;
12760;SDS011;6444;49.742;6.114;2023-12-28T00:56:58;3.12;;;2.50;;
12760;SDS011;6444;49.742;6.114;2023-12-28T00:59:25;3.60;;;2.70;;
12760;SDS011;6444;49.742;6.114;2023-12-28T01:01:51;3.90;;;2.60;;
12760;SDS011;6444;49.742;6.114;2023-12-28T01:04:19;3.47;;;2.40;;
12760;SDS011;6444;49.742;6.114;2023-12-28T01:06:45;3.97;;;2.50;;
12760;SDS011;6444;49.742;6.114;2023-12-28T01:09:12;3.95;;;3.00;;
12760;SDS011;6444;49.742;6.114;2023-12-28T01:11:39;3.53;;;2.93;;
12760;SDS011;6444;49.742;6.114;2023-12-28T01:14:06;4.20;;;3.00;;
12760;SDS011;6444;49.742;6.114;2023-12-28T01:16:32;3.40;;;2.53;;
12760;SDS011;6444;49.742;6.114;2023-12-28T01:18:59;4.35;;;2.90;;
12760;SDS011;6444;49.742;6.114;2023-12-28T01:21:26;4.07;;;2.42;;
12760;SDS011;6444;49.742;6.114;2023-12-28T01:23:52;4.55;;;3.10;;
12760;SDS011;6444;49.742;6.114;2023-12-28T01:26:25;5.43;;;2.80;;
12760;SDS011;6444;49.742;6.114;2023-12-28T01:28:48;3.43;;;2.77;;
12760;SDS011;6444;49.742;6.114;2023-12-28T01:31:15;4.33;;;2.70;;
12760;SDS011;6444;49.742;6.114;2023-12-28T01:33:45;4.67;;;2.77;;
12760;SDS011;6444;49.742;6.114;2023-12-28T01:36:18;2.77;;;2.53;;
12760;SDS011;6444;49.742;6.114;2023-12-28T01:38:44;3.93;;;2.80;;
12760;SDS011;6444;49.742;6.114;2023-12-28T01:41:11;3.10;;;2.67;;
12760;SDS011;6444;49.742;6.114;2023-12-28T01:43:37;3.90;;;2.90;;
12760;SDS011;6444;49.742;6.114;2023-12-28T01:46:15;4.23;;;2.50;;
12760;SDS011;6444;49.742;6.114;2023-12-28T01:48:34;4.00;;;2.75;;
12760;SDS011;6444;49.742;6.114;2023-12-28T01:51:06;3.00;;;2.70;;
12760;SDS011;6444;49.742;6.114;2023-12-28T01:53:39;3.33;;;2.80;;
12760;SDS011;6444;49.742;6.114;2023-12-28T01:56:05;3.12;;;2.80;;
12760;SDS011;6444;49.742;6.114;2023-12-28T01:58:35;3.67;;;2.95;;
12760;SDS011;6444;49.742;6.114;2023-12-28T02:01:01;2.70;;;2.27;;
12760;SDS011;6444;49.742;6.114;2023-12-28T02:03:28;3.87;;;2.90;;
12760;SDS011;6444;49.742;6.114;2023-12-28T02:06:01;5.50;;;3.08;;
12760;SDS011;6444;49.742;6.114;2023-12-28T02:08:33;3.30;;;2.83;;
12760;SDS011;6444;49.742;6.114;2023-12-28T02:10:59;3.37;;;2.97;;
12760;SDS011;6444;49.742;6.114;2023-12-28T02:13:29;3.75;;;2.90;;
12760;SDS011;6444;49.742;6.114;2023-12-28T02:16:00;4.25;;;3.53;;
12760;SDS011;6444;49.742;6.114;2023-12-28T02:18:26;3.70;;;3.17;;
12760;SDS011;6444;49.742;6.114;2023-12-28T02:20:51;5.22;;;3.45;;
12760;SDS011;6444;49.742;6.114;2023-12-28T02:23:18;4.17;;;3.13;;
12760;SDS011;6444;49.742;6.114;2023-12-28T02:25:45;5.10;;;3.10;;
12760;SDS011;6444;49.742;6.114;2023-12-28T02:28:11;6.28;;;3.60;;
12760;SDS011;6444;49.742;6.114;2023-12-28T02:30:38;7.25;;;4.03;;
12760;SDS011;6444;49.742;6.114;2023-12-28T02:33:07;4.50;;;4.10;;
12760;SDS011;6444;49.742;6.114;2023-12-28T02:38:26;6.37;;;3.62;;
12760;SDS011;6444;49.742;6.114;2023-12-28T02:41:01;4.72;;;3.22;;
12760;SDS011;6444;49.742;6.114;2023-12-28T02:43:28;6.53;;;3.67;;
12760;SDS011;6444;49.742;6.114;2023-12-28T02:45:57;5.65;;;3.35;;
12760;SDS011;6444;49.742;6.114;2023-12-28T02:48:22;5.90;;;3.45;;
12760;SDS011;6444;49.742;6.114;2023-12-28T02:50:52;4.03;;;3.50;;
12760;SDS011;6444;49.742;6.114;2023-12-28T02:53:19;5.95;;;4.40;;
12760;SDS011;6444;49.742;6.114;2023-12-28T02:55:46;5.43;;;4.60;;
12760;SDS011;6444;49.742;6.114;2023-12-28T02:58:12;6.12;;;3.87;;
12760;SDS011;6444;49.742;6.114;2023-12-28T03:00:39;5.57;;;3.37;;
12760;SDS011;6444;49.742;6.114;2023-12-28T03:03:06;3.72;;;3.42;;
12760;SDS011;6444;49.742;6.114;2023-12-28T03:05:32;5.55;;;3.47;;
12760;SDS011;6444;49.742;6.114;2023-12-28T03:07:59;5.20;;;3.65;;
12760;SDS011;6444;49.742;6.114;2023-12-28T03:10:25;5.78;;;4.60;;
12760;SDS011;6444;49.742;6.114;2023-12-28T03:12:52;6.20;;;3.70;;
12760;SDS011;6444;49.742;6.114;2023-12-28T03:15:19;4.95;;;3.55;;
12760;SDS011;6444;49.742;6.114;2023-12-28T03:17:45;5.62;;;3.80;;
12760;SDS011;6444;49.742;6.114;2023-12-28T03:20:12;4.93;;;3.50;;
12760;SDS011;6444;49.742;6.114;2023-12-28T03:22:41;3.85;;;3.40;;
12760;SDS011;6444;49.742;6.114;2023-12-28T03:25:09;9.23;;;3.80;;
12760;SDS011;6444;49.742;6.114;2023-12-28T03:27:35;5.70;;;3.80;;
12760;SDS011;6444;49.742;6.114;2023-12-28T03:30:02;5.65;;;3.58;;
12760;SDS011;6444;49.742;6.114;2023-12-28T03:32:28;5.43;;;3.45;;
12760;SDS011;6444;49.742;6.114;2023-12-28T03:34:55;4.10;;;3.30;;
12760;SDS011;6444;49.742;6.114;2023-12-28T03:37:22;4.20;;;3.60;;
12760;SDS011;6444;49.742;6.114;2023-12-28T03:39:48;5.60;;;3.75;;
12760;SDS011;6444;49.742;6.114;2023-12-28T03:42:15;5.72;;;4.20;;
12760;SDS011;6444;49.742;6.114;2023-12-28T03:44:42;5.05;;;3.42;;
12760;SDS011;6444;49.742;6.114;2023-12-28T03:47:08;5.85;;;3.80;;
12760;SDS011;6444;49.742;6.114;2023-12-28T03:49:35;4.70;;;3.10;;
12760;SDS011;6444;49.742;6.114;2023-12-28T03:52:01;5.97;;;3.80;;
12760;SDS011;6444;49.742;6.114;2023-12-28T03:54:28;4.07;;;3.58;;
12760;SDS011;6444;49.742;6.114;2023-12-28T03:56:56;5.55;;;4.22;;
12760;SDS011;6444;49.742;6.114;2023-12-28T03:59:25;4.90;;;4.28;;
12760;SDS011;6444;49.742;6.114;2023-12-28T04:01:49;5.25;;;4.28;;
12760;SDS011;6444;49.742;6.114;2023-12-28T04:04:16;6.22;;;4.22;;
12760;SDS011;6444;49.742;6.114;2023-12-28T04:06:43;7.30;;;3.50;;
12760;SDS011;6444;49.742;6.114;2023-12-28T04:09:12;7.87;;;3.55;;
12760;SDS011;6444;49.742;6.114;2023-12-28T04:11:39;6.97;;;3.45;;
12760;SDS011;6444;49.742;6.114;2023-12-28T04:14:05;5.05;;;3.55;;
12760;SDS011;6444;49.742;6.114;2023-12-28T04:16:35;6.05;;;3.75;;
12760;SDS011;6444;49.742;6.114;2023-12-28T04:18:59;4.07;;;3.33;;
12760;SDS011;6444;49.742;6.114;2023-12-28T04:21:28;4.47;;;3.30;;
12760;SDS011;6444;49.742;6.114;2023-12-28T04:26:42;7.43;;;5.22;;
12760;SDS011;6444;49.742;6.114;2023-12-28T04:29:02;3.97;;;3.25;;
12760;SDS011;6444;49.742;6.114;2023-12-28T04:31:32;5.97;;;3.55;;
12760;SDS011;6444;49.742;6.114;2023-12-28T04:34:03;3.83;;;3.10;;
12760;SDS011;6444;49.742;6.114;2023-12-28T04:36:28;5.47;;;3.90;;
12760;SDS011;6444;49.742;6.114;2023-12-28T04:38:55;4.35;;;3.10;;
12760;SDS011;6444;49.742;6.114;2023-12-28T04:41:21;6.85;;;3.58;;
12760;SDS011;6444;49.742;6.114;2023-12-28T04:43:49;8.32;;;3.60;;
12760;SDS011;6444;49.742;6.114;2023-12-28T04:46:15;6.72;;;3.30;;
12760;SDS011;6444;49.742;6.114;2023-12-28T04:48:42;3.53;;;3.03;;
12760;SDS011;6444;49.742;6.114;2023-12-28T04:51:08;4.93;;;3.15;;
12760;SDS011;6444;49.742;6.114;2023-12-28T04:53:35;6.18;;;3.67;;
12760;SDS011;6444;49.742;6.114;2023-12-28T04:56:02;6.35;;;3.67;;
12760;SDS011;6444;49.742;6.114;2023-12-28T04:58:28;7.12;;;4.78;;
12760;SDS011;6444;49.742;6.114;2023-12-28T05:00:55;3.70;;;3.30;;
12760;SDS011;6444;49.742;6.114;2023-12-28T05:03:22;6.93;;;3.47;;
12760;SDS011;6444;49.742;6.114;2023-12-28T05:05:48;8.45;;;3.80;;
12760;SDS011;6444;49.742;6.114;2023-12-28T05:08:16;7.85;;;2.85;;
12760;SDS011;6444;49.742;6.114;2023-12-28T05:10:42;7.93;;;3.10;;
12760;SDS011;6444;49.742;6.114;2023-12-28T05:13:09;6.80;;;3.70;;
12760;SDS011;6444;49.742;6.114;2023-12-28T05:15:35;3.65;;;3.10;;
12760;SDS011;6444;49.742;6.114;2023-12-28T05:18:02;4.22;;;2.87;;
12760;SDS011;6444;49.742;6.114;2023-12-28T05:20:29;7.55;;;3.40;;
12760;SDS011;6444;49.742;6.114;2023-12-28T05:22:55;5.55;;;3.78;;
12760;SDS011;6444;49.742;6.114;2023-12-28T05:25:22;5.10;;;2.95;;
12760;SDS011;6444;49.742;6.114;2023-12-28T05:27:49;7.25;;;2.95;;
12760;SDS011;6444;49.742;6.114;2023-12-28T05:30:15;5.28;;;2.90;;
12760;SDS011;6444;49.742;6.114;2023-12-28T05:32:43;4.57;;;2.95;;
12760;SDS011;6444;49.742;6.114;2023-12-28T05:35:09;3.92;;;3.05;;
12760;SDS011;6444;49.742;6.114;2023-12-28T05:37:36;5.20;;;3.30;;
12760;SDS011;6444;49.742;6.114;2023-12-28T05:40:03;4.25;;;2.90;;
12760;SDS011;6444;49.742;6.114;2023-12-28T05:42:30;6.03;;;2.80;;
12760;SDS011;6444;49.742;6.114;2023-12-28T05:44:56;5.53;;;2.97;;
12760;SDS011;6444;49.742;6.114;2023-12-28T05:47:23;5.50;;;3.00;;
12760;SDS011;6444;49.742;6.114;2023-12-28T05:49:50;7.95;;;2.80;;
12760;SDS011;6444;49.742;6.114;2023-12-28T05:52:16;3.17;;;2.87;;
12760;SDS011;6444;49.742;6.114;2023-12-28T05:54:43;3.65;;;2.40;;
12760;SDS011;6444;49.742;6.114;2023-12-28T05:57:10;7.70;;;3.10;;
12760;SDS011;6444;49.742;6.114;2023-12-28T05:59:39;5.68;;;2.97;;
12760;SDS011;6444;49.742;6.114;2023-12-28T06:02:06;4.85;;;3.50;;
12760;SDS011;6444;49.742;6.114;2023-12-28T06:04:32;4.97;;;2.60;;
12760;SDS011;6444;49.742;6.114;2023-12-28T06:06:59;5.03;;;3.00;;
12760;SDS011;6444;49.742;6.114;2023-12-28T06:09:26;7.25;;;2.95;;
12760;SDS011;6444;49.742;6.114;2023-12-28T06:11:52;6.30;;;2.85;;
12760;SDS011;6444;49.742;6.114;2023-12-28T06:14:19;6.10;;;2.67;;
12760;SDS011;6444;49.742;6.114;2023-12-28T06:16:46;4.72;;;2.67;;
12760;SDS011;6444;49.742;6.114;2023-12-28T06:19:13;5.35;;;3.10;;
12760;SDS011;6444;49.742;6.114;2023-12-28T06:21:40;5.35;;;2.50;;
12760;SDS011;6444;49.742;6.114;2023-12-28T06:24:07;5.22;;;3.10;;
12760;SDS011;6444;49.742;6.114;2023-12-28T06:26:34;3.92;;;2.60;;
12760;SDS011;6444;49.742;6.114;2023-12-28T06:29:00;9.77;;;3.33;;
12760;SDS011;6444;49.742;6.114;2023-12-28T06:31:27;7.68;;;2.90;;
12760;SDS011;6444;49.742;6.114;2023-12-28T06:33:54;8.23;;;2.70;;
12760;SDS011;6444;49.742;6.114;2023-12-28T06:36:21;3.25;;;2.62;;
12760;SDS011;6444;49.742;6.114;2023-12-28T06:38:48;8.50;;;2.70;;
12760;SDS011;6444;49.742;6.114;2023-12-28T06:41:14;4.50;;;2.70;;
12760;SDS011;6444;49.742;6.114;2023-12-28T06:43:42;4.97;;;2.67;;
12760;SDS011;6444;49.742;6.114;2023-12-28T06:46:08;4.03;;;2.53;;
12760;SDS011;6444;49.742;6.114;2023-12-28T06:48:35;4.97;;;2.50;;
12760;SDS011;6444;49.742;6.114;2023-12-28T06:51:01;5.37;;;2.92;;
12760;SDS011;6444;49.742;6.114;2023-12-28T06:53:28;5.93;;;2.60;;
12760;SDS011;6444;49.742;6.114;2023-12-28T06:55:55;4.97;;;2.50;;
12760;SDS011;6444;49.742;6.114;2023-12-28T06:58:21;5.20;;;2.92;;
12760;SDS011;6444;49.742;6.114;2023-12-28T07:00:48;5.35;;;3.10;;
12760;SDS011;6444;49.742;6.114;2023-12-28T07:03:15;5.70;;;2.80;;
12760;SDS011;6444;49.742;6.114;2023-12-28T07:05:41;4.72;;;2.78;;
12760;SDS011;6444;49.742;6.114;2023-12-28T07:08:08;3.65;;;1.98;;
12760;SDS011;6444;49.742;6.114;2023-12-28T07:10:34;4.43;;;2.30;;
12760;SDS011;6444;49.742;6.114;2023-12-28T07:13:02;5.80;;;2.75;;
12760;SDS011;6444;49.742;6.114;2023-12-28T07:15:28;5.80;;;2.65;;
12760;SDS011;6444;49.742;6.114;2023-12-28T07:17:55;3.97;;;2.42;;
12760;SDS011;6444;49.742;6.114;2023-12-28T07:20:22;6.00;;;2.65;;
12760;SDS011;6444;49.742;6.114;2023-12-28T07:22:49;5.20;;;2.62;;
12760;SDS011;6444;49.742;6.114;2023-12-28T07:25:16;4.55;;;2.45;;
12760;SDS011;6444;49.742;6.114;2023-12-28T07:27:42;3.75;;;2.25;;
12760;SDS011;6444;49.742;6.114;2023-12-28T07:30:10;3.47;;;2.50;;
12760;SDS011;6444;49.742;6.114;2023-12-28T07:32:37;6.03;;;2.42;;
12760;SDS011;6444;49.742;6.114;2023-12-28T07:35:03;6.30;;;2.65;;
12760;SDS011;6444;49.742;6.114;2023-12-28T07:37:30;5.62;;;2.55;;
12760;SDS011;6444;49.742;6.114;2023-12-28T07:39:56;7.57;;;2.15;;
12760;SDS011;6444;49.742;6.114;2023-12-28T07:42:23;3.40;;;2.08;;
12760;SDS011;6444;49.742;6.114;2023-12-28T07:44:50;2.85;;;2.08;;
12760;SDS011;6444;49.742;6.114;2023-12-28T07:47:16;4.00;;;2.17;;
12760;SDS011;6444;49.742;6.114;2023-12-28T07:49:43;3.55;;;2.00;;
12760;SDS011;6444;49.742;6.114;2023-12-28T07:52:10;4.32;;;2.50;;
12760;SDS011;6444;49.742;6.114;2023-12-28T07:54:37;2.67;;;2.30;;
12760;SDS011;6444;49.742;6.114;2023-12-28T07:57:04;4.97;;;2.42;;
12760;SDS011;6444;49.742;6.114;2023-12-28T07:59:30;4.20;;;2.35;;
12760;SDS011;6444;49.742;6.114;2023-12-28T08:01:57;6.45;;;2.35;;
12760;SDS011;6444;49.742;6.114;2023-12-28T08:04:24;5.95;;;2.22;;
12760;SDS011;6444;49.742;6.114;2023-12-28T08:06:50;3.58;;;2.08;;
12760;SDS011;6444;49.742;6.114;2023-12-28T08:09:17;5.45;;;2.22;;
12760;SDS011;6444;49.742;6.114;2023-12-28T08:11:44;3.08;;;2.03;;
12760;SDS011;6444;49.742;6.114;2023-12-28T08:14:10;5.18;;;2.05;;
12760;SDS011;6444;49.742;6.114;2023-12-28T08:16:37;5.72;;;2.25;;
12760;SDS011;6444;49.742;6.114;2023-12-28T08:19:04;4.37;;;2.15;;
12760;SDS011;6444;49.742;6.114;2023-12-28T08:21:31;4.37;;;2.28;;
12760;SDS011;6444;49.742;6.114;2023-12-28T08:23:57;3.15;;;2.25;;
12760;SDS011;6444;49.742;6.114;2023-12-28T08:26:24;5.20;;;2.10;;
12760;SDS011;6444;49.742;6.114;2023-12-28T08:28:51;3.30;;;2.17;;
12760;SDS011;6444;49.742;6.114;2023-12-28T08:31:17;6.20;;;2.03;;
12760;SDS011;6444;49.742;6.114;2023-12-28T08:33:44;3.17;;;2.05;;
12760;SDS011;6444;49.742;6.114;2023-12-28T08:36:11;4.10;;;2.20;;
12760;SDS011;6444;49.742;6.114;2023-12-28T08:38:38;8.55;;;2.80;;
12760;SDS011;6444;49.742;6.114;2023-12-28T08:41:05;4.28;;;2.10;;
12760;SDS011;6444;49.742;6.114;2023-12-28T08:43:31;3.92;;;2.47;;
12760;SDS011;6444;49.742;6.114;2023-12-28T08:45:58;5.85;;;2.20;;
12760;SDS011;6444;49.742;6.114;2023-12-28T08:48:25;3.97;;;2.30;;
12760;SDS011;6444;49.742;6.114;2023-12-28T08:50:52;4.82;;;2.05;;
12760;SDS011;6444;49.742;6.114;2023-12-28T08:53:18;3.42;;;1.90;;
12760;SDS011;6444;49.742;6.114;2023-12-28T08:55:45;6.18;;;1.73;;
12760;SDS011;6444;49.742;6.114;2023-12-28T08:58:12;4.10;;;2.10;;
12760;SDS011;6444;49.742;6.114;2023-12-28T09:00:38;3.78;;;2.05;;
12760;SDS011;6444;49.742;6.114;2023-12-28T09:03:05;5.07;;;2.10;;
12760;SDS011;6444;49.742;6.114;2023-12-28T09:05:32;7.55;;;2.47;;
12760;SDS011;6444;49.742;6.114;2023-12-28T09:08:02;9.90;;;2.30;;
12760;SDS011;6444;49.742;6.114;2023-12-28T09:10:28;5.78;;;2.10;;
12760;SDS011;6444;49.742;6.114;2023-12-28T09:12:55;5.80;;;1.80;;
12760;SDS011;6444;49.742;6.114;2023-12-28T09:15:22;11.40;;;4.35;;
12760;SDS011;6444;49.742;6.114;2023-12-28T09:17:48;7.07;;;4.28;;
12760;SDS011;6444;49.742;6.114;2023-12-28T09:20:15;6.75;;;2.53;;
12760;SDS011;6444;49.742;6.114;2023-12-28T09:22:42;9.88;;;5.22;;
12760;SDS011;6444;49.742;6.114;2023-12-28T09:25:09;5.57;;;1.90;;
12760;SDS011;6444;49.742;6.114;2023-12-28T09:27:35;3.37;;;2.03;;
12760;SDS011;6444;49.742;6.114;2023-12-28T09:30:02;5.43;;;2.65;;
12760;SDS011;6444;49.742;6.114;2023-12-28T09:32:29;5.62;;;2.10;;
12760;SDS011;6444;49.742;6.114;2023-12-28T09:34:55;5.43;;;2.08;;
12760;SDS011;6444;49.742;6.114;2023-12-28T09:37:23;5.60;;;1.95;;
12760;SDS011;6444;49.742;6.114;2023-12-28T09:39:49;4.43;;;2.22;;
12760;SDS011;6444;49.742;6.114;2023-12-28T09:42:16;3.20;;;1.48;;
12760;SDS011;6444;49.742;6.114;2023-12-28T09:44:43;4.70;;;1.98;;
12760;SDS011;6444;49.742;6.114;2023-12-28T09:47:10;4.75;;;1.80;;
12760;SDS011;6444;49.742;6.114;2023-12-28T09:49:37;5.55;;;2.20;;
12760;SDS011;6444;49.742;6.114;2023-12-28T09:52:04;4.70;;;1.85;;
12760;SDS011;6444;49.742;6.114;2023-12-28T09:54:30;3.67;;;2.20;;
12760;SDS011;6444;49.742;6.114;2023-12-28T09:56:57;5.47;;;1.98;;
12760;SDS011;6444;49.742;6.114;2023-12-28T09:59:24;7.00;;;2.50;;
12760;SDS011;6444;49.742;6.114;2023-12-28T10:01:50;7.97;;;2.40;;
12760;SDS011;6444;49.742;6.114;2023-12-28T10:04:17;9.30;;;2.45;;
12760;SDS011;6444;49.742;6.114;2023-12-28T10:06:43;5.18;;;2.10;;
12760;SDS011;6444;49.742;6.114;2023-12-28T10:09:12;8.55;;;3.28;;
12760;SDS011;6444;49.742;6.114;2023-12-28T10:11:39;7.22;;;2.25;;
12760;SDS011;6444;49.742;6.114;2023-12-28T10:14:13;8.82;;;3.83;;
12760;SDS011;6444;49.742;6.114;2023-12-28T10:16:46;8.55;;;2.20;;
12760;SDS011;6444;49.742;6.114;2023-12-28T10:19:13;3.85;;;1.60;;
12760;SDS011;6444;49.742;6.114;2023-12-28T10:21:40;5.87;;;2.58;;
12760;SDS011;6444;49.742;6.114;2023-12-28T10:24:06;6.85;;;2.15;;
12760;SDS011;6444;49.742;6.114;2023-12-28T10:26:33;5.28;;;1.98;;
12760;SDS011;6444;49.742;6.114;2023-12-28T10:28:59;7.32;;;1.95;;
12760;SDS011;6444;49.742;6.114;2023-12-28T10:31:26;4.95;;;2.03;;
12760;SDS011;6444;49.742;6.114;2023-12-28T10:33:54;4.55;;;1.90;;
12760;SDS011;6444;49.742;6.114;2023-12-28T10:36:20;6.35;;;2.15;;
12760;SDS011;6444;49.742;6.114;2023-12-28T10:38:47;6.87;;;2.20;;
12760;SDS011;6444;49.742;6.114;2023-12-28T10:41:14;5.22;;;1.67;;
12760;SDS011;6444;49.742;6.114;2023-12-28T10:46:27;5.62;;;1.80;;
12760;SDS011;6444;49.742;6.114;2023-12-28T10:48:57;6.87;;;2.03;;
12760;SDS011;6444;49.742;6.114;2023-12-28T10:51:26;6.10;;;2.10;;
12760;SDS011;6444;49.742;6.114;2023-12-28T10:56:27;5.07;;;1.73;;
12760;SDS011;6444;49.742;6.114;2023-12-28T10:58:52;6.30;;;1.98;;
12760;SDS011;6444;49.742;6.114;2023-12-28T11:01:20;7.90;;;1.92;;
12760;SDS011;6444;49.742;6.114;2023-12-28T11:03:51;2.33;;;1.67;;
12760;SDS011;6444;49.742;6.114;2023-12-28T11:06:15;11.12;;;6.00;;
12760;SDS011;6444;49.742;6.114;2023-12-28T11:08:42;8.18;;;3.20;;
12760;SDS011;6444;49.742;6.114;2023-12-28T11:11:09;6.37;;;2.65;;
12760;SDS011;6444;49.742;6.114;2023-12-28T11:13:35;6.22;;;2.20;;
12760;SDS011;6444;49.742;6.114;2023-12-28T11:16:02;4.30;;;1.50;;
12760;SDS011;6444;49.742;6.114;2023-12-28T11:18:28;5.25;;;1.75;;
12760;SDS011;6444;49.742;6.114;2023-12-28T11:20:55;6.10;;;1.67;;
12760;SDS011;6444;49.742;6.114;2023-12-28T11:23:22;5.35;;;2.20;;
12760;SDS011;6444;49.742;6.114;2023-12-28T11:25:48;6.37;;;2.22;;
12760;SDS011;6444;49.742;6.114;2023-12-28T11:28:15;8.38;;;1.70;;
12760;SDS011;6444;49.742;6.114;2023-12-28T11:30:42;4.20;;;1.90;;
12760;SDS011;6444;49.742;6.114;2023-12-28T11:33:11;11.95;;;6.87;;
12760;SDS011;6444;49.742;6.114;2023-12-28T11:35:40;12.80;;;9.10;;
12760;SDS011;6444;49.742;6.114;2023-12-28T11:38:08;6.35;;;1.98;;
12760;SDS011;6444;49.742;6.114;2023-12-28T11:40:40;4.22;;;1.95;;
12760;SDS011;6444;49.742;6.114;2023-12-28T11:43:06;2.62;;;1.90;;
12760;SDS011;6444;49.742;6.114;2023-12-28T11:45:32;3.80;;;1.80;;
12760;SDS011;6444;49.742;6.114;2023-12-28T11:47:59;4.87;;;2.45;;
12760;SDS011;6444;49.742;6.114;2023-12-28T11:50:26;2.72;;;1.58;;
12760;SDS011;6444;49.742;6.114;2023-12-28T11:52:53;5.12;;;1.85;;
12760;SDS011;6444;49.742;6.114;2023-12-28T11:55:23;5.87;;;1.87;;
12760;SDS011;6444;49.742;6.114;2023-12-28T11:57:49;4.95;;;1.60;;
12760;SDS011;6444;49.742;6.114;2023-12-28T12:00:16;4.30;;;1.80;;
12760;SDS011;6444;49.742;6.114;2023-12-28T12:02:43;6.20;;;1.85;;
12760;SDS011;6444;49.742;6.114;2023-12-28T12:05:09;3.35;;;1.50;;
12760;SDS011;6444;49.742;6.114;2023-12-28T12:07:36;4.78;;;1.45;;
12760;SDS011;6444;49.742;6.114;2023-12-28T12:10:03;2.92;;;1.65;;
12760;SDS011;6444;49.742;6.114;2023-12-28T12:12:29;6.55;;;1.95;;
12760;SDS011;6444;49.742;6.114;2023-12-28T12:14:56;3.75;;;1.75;;
12760;SDS011;6444;49.742;6.114;2023-12-28T12:17:23;4.85;;;1.70;;
12760;SDS011;6444;49.742;6.114;2023-12-28T12:19:50;5.90;;;1.80;;
12760;SDS011;6444;49.742;6.114;2023-12-28T12:22:16;3.47;;;1.48;;
12760;SDS011;6444;49.742;6.114;2023-12-28T12:24:46;4.40;;;2.58;;
12760;SDS011;6444;49.742;6.114;2023-12-28T12:27:12;6.87;;;4.40;;
12760;SDS011;6444;49.742;6.114;2023-12-28T12:29:39;8.30;;;6.15;;
12760;SDS011;6444;49.742;6.114;2023-12-28T12:32:06;8.40;;;6.22;;
12760;SDS011;6444;49.742;6.114;2023-12-28T12:34:33;2.53;;;1.40;;
12760;SDS011;6444;49.742;6.114;2023-12-28T12:37:00;4.97;;;1.77;;
12760;SDS011;6444;49.742;6.114;2023-12-28T12:39:26;4.37;;;1.77;;
12760;SDS011;6444;49.742;6.114;2023-12-28T12:41:53;5.82;;;1.80;;
12760;SDS011;6444;49.742;6.114;2023-12-28T12:44:20;4.60;;;1.58;;
12760;SDS011;6444;49.742;6.114;2023-12-28T12:46:47;3.08;;;1.70;;
12760;SDS011;6444;49.742;6.114;2023-12-28T12:49:14;4.20;;;1.48;;
12760;SDS011;6444;49.742;6.114;2023-12-28T12:51:40;3.92;;;1.40;;
12760;SDS011;6444;49.742;6.114;2023-12-28T12:54:07;2.05;;;1.40;;
12760;SDS011;6444;49.742;6.114;2023-12-28T12:56:34;3.65;;;1.70;;
12760;SDS011;6444;49.742;6.114;2023-12-28T12:59:00;3.67;;;1.65;;
12760;SDS011;6444;49.742;6.114;2023-12-28T13:01:27;3.92;;;1.27;;
12760;SDS011;6444;49.742;6.114;2023-12-28T13:03:53;4.03;;;1.42;;
12760;SDS011;6444;49.742;6.114;2023-12-28T13:06:20;4.53;;;1.40;;
12760;SDS011;6444;49.742;6.114;2023-12-28T13:08:47;3.20;;;1.50;;
12760;SDS011;6444;49.742;6.114;2023-12-28T13:11:13;3.42;;;1.30;;
12760;SDS011;6444;49.742;6.114;2023-12-28T13:13:40;3.90;;;1.50;;
12760;SDS011;6444;49.742;6.114;2023-12-28T13:16:07;3.92;;;1.25;;
12760;SDS011;6444;49.742;6.114;2023-12-28T13:18:33;4.12;;;1.50;;
12760;SDS011;6444;49.742;6.114;2023-12-28T13:21:01;5.35;;;1.70;;
12760;SDS011;6444;49.742;6.114;2023-12-28T13:23:27;6.75;;;1.75;;
12760;SDS011;6444;49.742;6.114;2023-12-28T13:25:54;3.65;;;1.60;;
12760;SDS011;6444;49.742;6.114;2023-12-28T13:28:21;4.43;;;2.15;;
12760;SDS011;6444;49.742;6.114;2023-12-28T13:30:47;2.42;;;1.85;;
12760;SDS011;6444;49.742;6.114;2023-12-28T13:33:14;4.05;;;2.53;;
12760;SDS011;6444;49.742;6.114;2023-12-28T13:35:40;4.22;;;1.70;;
12760;SDS011;6444;49.742;6.114;2023-12-28T13:38:07;2.10;;;1.20;;
12760;SDS011;6444;49.742;6.114;2023-12-28T13:40:34;3.40;;;1.70;;
12760;SDS011;6444;49.742;6.114;2023-12-28T13:43:00;2.17;;;1.65;;
12760;SDS011;6444;49.742;6.114;2023-12-28T13:45:27;2.87;;;1.70;;
12760;SDS011;6444;49.742;6.114;2023-12-28T13:47:54;5.40;;;1.83;;
12760;SDS011;6444;49.742;6.114;2023-12-28T13:50:20;3.97;;;1.75;;
12760;SDS011;6444;49.742;6.114;2023-12-28T13:52:47;5.55;;;2.50;;
12760;SDS011;6444;49.742;6.114;2023-12-28T13:55:13;3.10;;;1.70;;
12760;SDS011;6444;49.742;6.114;2023-12-28T13:57:40;3.87;;;1.95;;
12760;SDS011;6444;49.742;6.114;2023-12-28T14:00:07;3.67;;;1.80;;
12760;SDS011;6444;49.742;6.114;2023-12-28T14:02:34;6.53;;;2.05;;
12760;SDS011;6444;49.742;6.114;2023-12-28T14:05:01;4.75;;;1.90;;
12760;SDS011;6444;49.742;6.114;2023-12-28T14:07:27;2.92;;;1.75;;
12760;SDS011;6444;49.742;6.114;2023-12-28T14:09:54;3.25;;;1.98;;
12760;SDS011;6444;49.742;6.114;2023-12-28T14:12:21;4.75;;;2.22;;
12760;SDS011;6444;49.742;6.114;2023-12-28T14:14:47;5.28;;;1.98;;
12760;SDS011;6444;49.742;6.114;2023-12-28T14:17:14;2.17;;;1.58;;
12760;SDS011;6444;49.742;6.114;2023-12-28T14:19:40;4.25;;;1.95;;
12760;SDS011;6444;49.742;6.114;2023-12-28T14:22:08;4.53;;;2.30;;
12760;SDS011;6444;49.742;6.114;2023-12-28T14:24:34;3.15;;;1.87;;
12760;SDS011;6444;49.742;6.114;2023-12-28T14:27:01;2.70;;;1.62;;
12760;SDS011;6444;49.742;6.114;2023-12-28T14:29:28;2.78;;;1.87;;
12760;SDS011;6444;49.742;6.114;2023-12-28T14:31:55;4.18;;;2.35;;
12760;SDS011;6444;49.742;6.114;2023-12-28T14:34:22;5.85;;;1.95;;
12760;SDS011;6444;49.742;6.114;2023-12-28T14:36:48;4.90;;;2.37;;
12760;SDS011;6444;49.742;6.114;2023-12-28T14:39:15;5.35;;;1.70;;
12760;SDS011;6444;49.742;6.114;2023-12-28T14:41:42;4.78;;;2.17;;
12760;SDS011;6444;49.742;6.114;2023-12-28T14:44:08;3.62;;;2.03;;
12760;SDS011;6444;49.742;6.114;2023-12-28T14:46:35;4.57;;;2.42;;
12760;SDS011;6444;49.742;6.114;2023-12-28T14:49:02;5.00;;;2.12;;
12760;SDS011;6444;49.742;6.114;2023-12-28T14:51:29;3.83;;;2.15;;
12760;SDS011;6444;49.742;6.114;2023-12-28T14:53:58;5.80;;;2.22;;
12760;SDS011;6444;49.742;6.114;2023-12-28T14:56:24;3.78;;;2.03;;
12760;SDS011;6444;49.742;6.114;2023-12-28T14:58:51;4.22;;;2.60;;
12760;SDS011;6444;49.742;6.114;2023-12-28T15:01:18;4.75;;;2.67;;
12760;SDS011;6444;49.742;6.114;2023-12-28T15:03:44;4.93;;;2.30;;
12760;SDS011;6444;49.742;6.114;2023-12-28T15:06:11;4.68;;;2.47;;
12760;SDS011;6444;49.742;6.114;2023-12-28T15:08:38;5.85;;;2.15;;